sensor_id;sensor_type;location;lat;lon;timestamp;P1;durP1;ratioP1;P2;durP2;ratioP2
71821;SDS011;64096;52.548;13.406;2023-02-13T06:02:21;9.52;;;6.22;;
71821;SDS011;64096;52.548;13.406;2023-02-13T06:04:47;8.90;;;5.57;;
71821;SDS011;64096;52.548;13.406;2023-02-13T06:07:13;7.30;;;4.40;;
71821;SDS011;64096;52.548;13.406;2023-02-13T06:09:39;6.80;;;4.57;;
71821;SDS011;64096;52.548;13.406;2023-02-13T06:12:05;6.20;;;4.07;;
71821;SDS011;64096;52.548;13.406;2023-02-13T06:14:31;9.32;;;6.15;;
71821;SDS011;64096;52.548;13.406;2023-02-13T06:16:57;7.25;;;4.85;;
71821;SDS011;64096;52.548;13.406;2023-02-13T06:19:25;8.18;;;5.13;;
71821;SDS011;64096;52.548;13.406;2023-02-13T06:21:51;7.00;;;4.28;;
71821;SDS011;64096;52.548;13.406;2023-02-13T06:24:17;6.95;;;4.38;;
71821;SDS011;64096;52.548;13.406;2023-02-13T06:26:43;6.65;;;4.15;;
71821;SDS011;64096;52.548;13.406;2023-02-13T06:29:09;6.88;;;4.32;;
71821;SDS011;64096;52.548;13.406;2023-02-13T06:31:36;7.05;;;4.47;;
71821;SDS011;64096;52.548;13.406;2023-02-13T06:34:02;7.30;;;4.30;;
71821;SDS011;64096;52.548;13.406;2023-02-13T06:36:29;7.70;;;4.88;;
71821;SDS011;64096;52.548;13.406;2023-02-13T06:38:55;7.97;;;4.13;;
71821;SDS011;64096;52.548;13.406;2023-02-13T06:41:21;7.25;;;4.30;;
71821;SDS011;64096;52.548;13.406;2023-02-13T06:43:47;7.40;;;4.43;;
71821;SDS011;64096;52.548;13.406;2023-02-13T06:46:13;7.65;;;5.20;;
71821;SDS011;64096;52.548;13.406;2023-02-13T06:48:39;6.80;;;4.53;;
71821;SDS011;64096;52.548;13.406;2023-02-13T06:51:05;9.38;;;5.03;;
71821;SDS011;64096;52.548;13.406;2023-02-13T06:53:31;7.60;;;4.13;;
71821;SDS011;64096;52.548;13.406;2023-02-13T06:56:03;7.55;;;4.50;;
71821;SDS011;64096;52.548;13.406;2023-02-13T06:58:32;9.07;;;5.65;;
71821;SDS011;64096;52.548;13.406;2023-02-13T07:00:59;8.40;;;5.50;;
71821;SDS011;64096;52.548;13.406;2023-02-13T07:03:25;7.65;;;4.63;;
71821;SDS011;64096;52.548;13.406;2023-02-13T07:05:51;7.72;;;4.80;;
71821;SDS011;64096;52.548;13.406;2023-02-13T07:08:17;7.40;;;4.68;;
71821;SDS011;64096;52.548;13.406;2023-02-13T07:10:43;10.35;;;7.45;;
71821;SDS011;64096;52.548;13.406;2023-02-13T07:13:10;9.80;;;6.65;;
71821;SDS011;64096;52.548;13.406;2023-02-13T07:15:36;7.90;;;4.97;;
71821;SDS011;64096;52.548;13.406;2023-02-13T07:18:03;6.97;;;4.50;;
71821;SDS011;64096;52.548;13.406;2023-02-13T07:20:29;7.20;;;4.85;;
71821;SDS011;64096;52.548;13.406;2023-02-13T07:23:02;7.43;;;4.47;;
71821;SDS011;64096;52.548;13.406;2023-02-13T07:25:29;6.95;;;4.70;;
71821;SDS011;64096;52.548;13.406;2023-02-13T07:28:04;6.53;;;4.18;;
71821;SDS011;64096;52.548;13.406;2023-02-13T07:30:31;6.22;;;4.25;;
71821;SDS011;64096;52.548;13.406;2023-02-13T07:33:01;6.13;;;4.20;;
71821;SDS011;64096;52.548;13.406;2023-02-13T07:35:27;11.63;;;7.75;;
71821;SDS011;64096;52.548;13.406;2023-02-13T07:37:53;7.38;;;4.90;;
71821;SDS011;64096;52.548;13.406;2023-02-13T07:40:19;7.20;;;4.55;;
71821;SDS011;64096;52.548;13.406;2023-02-13T07:42:45;5.72;;;3.70;;
71821;SDS011;64096;52.548;13.406;2023-02-13T07:45:11;6.07;;;4.03;;
71821;SDS011;64096;52.548;13.406;2023-02-13T07:47:39;6.63;;;4.15;;
71821;SDS011;64096;52.548;13.406;2023-02-13T07:50:05;6.78;;;4.50;;
71821;SDS011;64096;52.548;13.406;2023-02-13T07:52:32;7.72;;;5.28;;
71821;SDS011;64096;52.548;13.406;2023-02-13T07:54:58;8.82;;;6.03;;
71821;SDS011;64096;52.548;13.406;2023-02-13T07:57:24;7.50;;;4.68;;
71821;SDS011;64096;52.548;13.406;2023-02-13T07:59:50;7.30;;;3.97;;
71821;SDS011;64096;52.548;13.406;2023-02-13T08:02:16;5.97;;;4.00;;
71821;SDS011;64096;52.548;13.406;2023-02-13T08:04:42;7.13;;;4.20;;
71821;SDS011;64096;52.548;13.406;2023-02-13T08:07:11;7.80;;;4.35;;
71821;SDS011;64096;52.548;13.406;2023-02-13T08:09:37;7.00;;;4.10;;
71821;SDS011;64096;52.548;13.406;2023-02-13T08:12:22;5.85;;;3.60;;
71821;SDS011;64096;52.548;13.406;2023-02-13T08:14:48;6.80;;;4.03;;
71821;SDS011;64096;52.548;13.406;2023-02-13T08:17:14;7.35;;;4.18;;
71821;SDS011;64096;52.548;13.406;2023-02-13T08:19:40;6.40;;;4.03;;
71821;SDS011;64096;52.548;13.406;2023-02-13T08:22:06;6.75;;;3.95;;
71821;SDS011;64096;52.548;13.406;2023-02-13T08:24:32;6.88;;;4.07;;
71821;SDS011;64096;52.548;13.406;2023-02-13T08:26:59;7.07;;;4.68;;
71821;SDS011;64096;52.548;13.406;2023-02-13T08:29:25;6.47;;;4.05;;
71821;SDS011;64096;52.548;13.406;2023-02-13T08:31:51;6.95;;;4.43;;
71821;SDS011;64096;52.548;13.406;2023-02-13T08:34:18;7.70;;;4.50;;
71821;SDS011;64096;52.548;13.406;2023-02-13T08:36:44;8.30;;;4.50;;
71821;SDS011;64096;52.548;13.406;2023-02-13T08:39:10;7.35;;;4.32;;
71821;SDS011;64096;52.548;13.406;2023-02-13T08:41:36;7.90;;;4.30;;
71821;SDS011;64096;52.548;13.406;2023-02-13T08:44:03;7.93;;;4.65;;
71821;SDS011;64096;52.548;13.406;2023-02-13T08:46:29;8.75;;;5.70;;
71821;SDS011;64096;52.548;13.406;2023-02-13T08:48:55;12.25;;;8.18;;
71821;SDS011;64096;52.548;13.406;2023-02-13T08:51:21;13.30;;;9.88;;
71821;SDS011;64096;52.548;13.406;2023-02-13T08:53:47;10.48;;;7.70;;
71821;SDS011;64096;52.548;13.406;2023-02-13T08:56:13;13.43;;;8.65;;
71821;SDS011;64096;52.548;13.406;2023-02-13T08:58:40;8.10;;;5.03;;
71821;SDS011;64096;52.548;13.406;2023-02-13T09:01:06;6.95;;;4.32;;
71821;SDS011;64096;52.548;13.406;2023-02-13T09:03:33;7.35;;;4.53;;
71821;SDS011;64096;52.548;13.406;2023-02-13T09:05:59;6.95;;;4.93;;
71821;SDS011;64096;52.548;13.406;2023-02-13T09:08:25;7.40;;;4.93;;
71821;SDS011;64096;52.548;13.406;2023-02-13T09:10:55;7.72;;;4.68;;
71821;SDS011;64096;52.548;13.406;2023-02-13T09:13:22;7.95;;;4.85;;
71821;SDS011;64096;52.548;13.406;2023-02-13T09:15:48;7.88;;;5.03;;
71821;SDS011;64096;52.548;13.406;2023-02-13T09:18:14;7.53;;;4.50;;
71821;SDS011;64096;52.548;13.406;2023-02-13T09:20:40;6.88;;;4.47;;
71821;SDS011;64096;52.548;13.406;2023-02-13T09:23:06;7.43;;;4.50;;
71821;SDS011;64096;52.548;13.406;2023-02-13T09:25:32;7.25;;;4.55;;
71821;SDS011;64096;52.548;13.406;2023-02-13T09:27:58;7.78;;;4.85;;
71821;SDS011;64096;52.548;13.406;2023-02-13T09:30:24;7.88;;;4.88;;
71821;SDS011;64096;52.548;13.406;2023-02-13T09:32:51;8.13;;;4.82;;
71821;SDS011;64096;52.548;13.406;2023-02-13T09:35:18;7.43;;;4.90;;
71821;SDS011;64096;52.548;13.406;2023-02-13T09:37:44;6.82;;;4.47;;
71821;SDS011;64096;52.548;13.406;2023-02-13T09:40:17;8.35;;;5.15;;
71821;SDS011;64096;52.548;13.406;2023-02-13T09:42:45;7.88;;;4.85;;
71821;SDS011;64096;52.548;13.406;2023-02-13T09:45:12;9.20;;;5.03;;
71821;SDS011;64096;52.548;13.406;2023-02-13T09:47:40;8.07;;;5.00;;
71821;SDS011;64096;52.548;13.406;2023-02-13T09:50:23;8.40;;;4.97;;
71821;SDS011;64096;52.548;13.406;2023-02-13T09:52:51;8.35;;;4.85;;
71821;SDS011;64096;52.548;13.406;2023-02-13T09:55:20;7.30;;;4.53;;
71821;SDS011;64096;52.548;13.406;2023-02-13T10:00:20;7.63;;;4.70;;
71821;SDS011;64096;52.548;13.406;2023-02-13T10:05:37;7.15;;;4.45;;
71821;SDS011;64096;52.548;13.406;2023-02-13T10:08:25;10.80;;;7.53;;
71821;SDS011;64096;52.548;13.406;2023-02-13T10:11:07;14.20;;;9.68;;
71821;SDS011;64096;52.548;13.406;2023-02-13T10:16:09;8.98;;;5.72;;
71821;SDS011;64096;52.548;13.406;2023-02-13T10:18:40;11.23;;;7.95;;
71821;SDS011;64096;52.548;13.406;2023-02-13T10:21:07;10.40;;;6.72;;
71821;SDS011;64096;52.548;13.406;2023-02-13T10:23:47;8.40;;;5.55;;
71821;SDS011;64096;52.548;13.406;2023-02-13T10:26:22;8.77;;;5.45;;
71821;SDS011;64096;52.548;13.406;2023-02-13T10:29:06;9.35;;;6.25;;
71821;SDS011;64096;52.548;13.406;2023-02-13T10:31:55;10.27;;;7.25;;
71821;SDS011;64096;52.548;13.406;2023-02-13T10:34:24;11.68;;;8.02;;
71821;SDS011;64096;52.548;13.406;2023-02-13T10:36:51;11.65;;;6.40;;
71821;SDS011;64096;52.548;13.406;2023-02-13T10:39:21;9.15;;;5.07;;
71821;SDS011;64096;52.548;13.406;2023-02-13T10:51:34;7.82;;;5.32;;
71821;SDS011;64096;52.548;13.406;2023-02-13T10:54:35;9.23;;;5.80;;
71821;SDS011;64096;52.548;13.406;2023-02-13T10:59:39;9.55;;;5.47;;
71821;SDS011;64096;52.548;13.406;2023-02-13T11:02:20;7.90;;;5.13;;
71821;SDS011;64096;52.548;13.406;2023-02-13T11:04:46;9.48;;;5.90;;
71821;SDS011;64096;52.548;13.406;2023-02-13T11:07:14;9.30;;;5.93;;
71821;SDS011;64096;52.548;13.406;2023-02-13T11:09:43;10.60;;;6.85;;
71821;SDS011;64096;52.548;13.406;2023-02-13T11:15:02;9.48;;;6.50;;
71821;SDS011;64096;52.548;13.406;2023-02-13T11:17:33;9.40;;;5.80;;
71821;SDS011;64096;52.548;13.406;2023-02-13T11:20:03;10.20;;;6.18;;
71821;SDS011;64096;52.548;13.406;2023-02-13T11:27:41;13.98;;;9.90;;
71821;SDS011;64096;52.548;13.406;2023-02-13T11:33:03;12.95;;;8.13;;
71821;SDS011;64096;52.548;13.406;2023-02-13T11:35:30;11.82;;;7.90;;
71821;SDS011;64096;52.548;13.406;2023-02-13T11:38:09;11.93;;;7.65;;
71821;SDS011;64096;52.548;13.406;2023-02-13T11:40:36;9.75;;;6.55;;
71821;SDS011;64096;52.548;13.406;2023-02-13T11:43:05;11.93;;;8.00;;
71821;SDS011;64096;52.548;13.406;2023-02-13T11:45:31;12.25;;;8.63;;
71821;SDS011;64096;52.548;13.406;2023-02-13T11:47:57;11.98;;;8.15;;
71821;SDS011;64096;52.548;13.406;2023-02-13T11:52:54;16.35;;;10.48;;
71821;SDS011;64096;52.548;13.406;2023-02-13T11:58:03;12.00;;;8.18;;
71821;SDS011;64096;52.548;13.406;2023-02-13T12:00:35;9.98;;;7.13;;
71821;SDS011;64096;52.548;13.406;2023-02-13T12:03:38;13.60;;;8.77;;
71821;SDS011;64096;52.548;13.406;2023-02-13T12:06:04;13.40;;;9.00;;
71821;SDS011;64096;52.548;13.406;2023-02-13T12:08:34;13.32;;;8.70;;
71821;SDS011;64096;52.548;13.406;2023-02-13T12:11:00;11.93;;;8.13;;
71821;SDS011;64096;52.548;13.406;2023-02-13T12:13:37;13.02;;;8.63;;
71821;SDS011;64096;52.548;13.406;2023-02-13T12:16:20;13.73;;;9.43;;
71821;SDS011;64096;52.548;13.406;2023-02-13T12:18:50;13.77;;;9.65;;
71821;SDS011;64096;52.548;13.406;2023-02-13T12:24:03;12.73;;;8.70;;
71821;SDS011;64096;52.548;13.406;2023-02-13T12:26:38;13.02;;;8.77;;
71821;SDS011;64096;52.548;13.406;2023-02-13T12:32:08;13.63;;;8.75;;
71821;SDS011;64096;52.548;13.406;2023-02-13T12:34:59;13.50;;;8.48;;
71821;SDS011;64096;52.548;13.406;2023-02-13T12:40:10;21.63;;;15.35;;
71821;SDS011;64096;52.548;13.406;2023-02-13T12:42:46;13.85;;;9.13;;
71821;SDS011;64096;52.548;13.406;2023-02-13T12:55:29;13.07;;;9.20;;
71821;SDS011;64096;52.548;13.406;2023-02-13T13:00:46;12.80;;;9.10;;
71821;SDS011;64096;52.548;13.406;2023-02-13T13:05:53;13.03;;;8.60;;
71821;SDS011;64096;52.548;13.406;2023-02-13T13:11:03;13.52;;;8.75;;
71821;SDS011;64096;52.548;13.406;2023-02-13T13:16:25;13.32;;;9.23;;
71821;SDS011;64096;52.548;13.406;2023-02-13T13:19:02;13.05;;;8.70;;
71821;SDS011;64096;52.548;13.406;2023-02-13T13:21:33;15.45;;;9.65;;
71821;SDS011;64096;52.548;13.406;2023-02-13T13:26:45;13.77;;;9.52;;
71821;SDS011;64096;52.548;13.406;2023-02-13T13:31:39;13.73;;;9.20;;
71821;SDS011;64096;52.548;13.406;2023-02-13T13:34:11;24.52;;;16.70;;
71821;SDS011;64096;52.548;13.406;2023-02-13T13:46:37;12.60;;;8.90;;
71821;SDS011;64096;52.548;13.406;2023-02-13T13:51:49;12.70;;;8.68;;
